Time;durP1;ratioP1;P1;durP2;ratioP2;P2;SDS_P1;SDS_P2;PMS_P1;PMS_P2;Temp;Humidity;BMP_temperature;BMP_pressure;BME280_temperature;BME280_humidity;BME280_pressure;Samples;Min_cycle;Max_cycle;Signal;HPM_P1;HPM_P2
2021/04/10 00:00:02;;;;;;;9.65;7.05;;;;;;;;;;5095173;28;20032;-74
2021/04/10 00:02:33;;;;;;;9.60;6.72;;;;;;;;;;5095447;28;20073;-74
2021/04/10 00:04:59;;;;;;;13.68;7.60;;;;;;;;;;5093770;28;20052;-74
2021/04/10 00:07:25;;;;;;;12.93;7.03;;;;;;;;;;5093830;28;20039;-74
2021/04/10 00:09:50;;;;;;;12.55;7.22;;;;;;;;;;5094970;28;20030;-74
2021/04/10 00:12:16;;;;;;;10.05;7.22;;;;;;;;;;5095123;28;20496;-74
2021/04/10 00:14:41;;;;;;;14.32;8.73;;;;;;;;;;5095173;28;20036;-74
2021/04/10 00:17:07;;;;;;;12.05;7.47;;;;;;;;;;5094900;28;20036;-74
2021/04/10 00:19:33;;;;;;;10.88;7.82;;;;;;;;;;5094029;28;20126;-74
2021/04/10 00:21:59;;;;;;;13.13;7.38;;;;;;;;;;5093883;28;20107;-74
2021/04/10 00:24:24;;;;;;;16.25;7.82;;;;;;;;;;5095024;28;20119;-74
2021/04/10 00:26:49;;;;;;;13.60;6.90;;;;;;;;;;5093620;28;20039;-74
2021/04/10 00:29:15;;;;;;;10.63;7.25;;;;;;;;;;5094697;28;20040;-74
2021/04/10 00:31:40;;;;;;;14.35;7.38;;;;;;;;;;5094942;28;20088;-74
2021/04/10 00:34:06;;;;;;;12.25;7.15;;;;;;;;;;5094873;28;20028;-74
2021/04/10 00:36:31;;;;;;;14.77;7.40;;;;;;;;;;5093081;28;20028;-74
2021/04/10 00:38:57;;;;;;;12.07;7.43;;;;;;;;;;5094420;28;20394;-74
2021/04/10 00:41:22;;;;;;;10.20;7.07;;;;;;;;;;5093909;28;20550;-73
2021/04/10 00:43:48;;;;;;;9.50;7.13;;;;;;;;;;5092177;28;20035;-73
2021/04/10 00:46:14;;;;;;;9.88;7.10;;;;;;;;;;5093713;28;20046;-73
2021/04/10 00:48:40;;;;;;;11.20;7.05;;;;;;;;;;5092296;28;20043;-73
2021/04/10 00:51:05;;;;;;;15.93;9.13;;;;;;;;;;5093750;28;20039;-73
2021/04/10 00:53:33;;;;;;;12.82;8.27;;;;;;;;;;5093093;28;20451;-73
2021/04/10 00:56:04;;;;;;;12.57;8.45;;;;;;;;;;5094016;28;20032;-73
2021/04/10 00:58:32;;;;;;;10.95;8.25;;;;;;;;;;5093252;28;20028;-73
2021/04/10 01:00:58;;;;;;;10.18;7.88;;;;;;;;;;5093397;28;20027;-73
2021/04/10 01:03:23;;;;;;;10.85;8.02;;;;;;;;;;5093373;28;20040;-73
2021/04/10 01:05:49;;;;;;;16.25;9.02;;;;;;;;;;5092974;28;20516;-74
2021/04/10 01:08:15;;;;;;;14.65;8.52;;;;;;;;;;5092407;28;20035;-74
2021/04/10 01:10:41;;;;;;;14.07;8.82;;;;;;;;;;5094104;28;20032;-73
2021/04/10 01:13:29;;;;;;;11.18;8.48;;;;;;;;;;5092571;28;20040;-73
2021/04/10 01:16:16;;;;;;;12.07;8.88;;;;;;;;;;5094012;28;20105;-74
2021/04/10 01:18:46;;;;;;;11.18;8.05;;;;;;;;;;5092079;28;20052;-73
2021/04/10 01:21:17;;;;;;;13.98;8.50;;;;;;;;;;5093920;28;20024;-73
2021/04/10 01:24:08;;;;;;;13.43;8.98;;;;;;;;;;5093667;28;20089;-73
2021/04/10 01:27:16;;;;;;;14.00;9.52;;;;;;;;;;5093728;28;20029;-73
2021/04/10 01:29:45;;;;;;;13.98;9.68;;;;;;;;;;5092300;28;20056;-73
2021/04/10 01:32:12;;;;;;;11.82;9.15;;;;;;;;;;5093819;28;20060;-74
2021/04/10 01:34:42;;;;;;;14.98;9.35;;;;;;;;;;5092352;28;20046;-74
2021/04/10 01:37:15;;;;;;;16.17;10.27;;;;;;;;;;5092170;28;20051;-74
2021/04/10 01:39:42;;;;;;;12.35;9.32;;;;;;;;;;5092971;28;20524;-73
2021/04/10 01:42:09;;;;;;;23.63;10.73;;;;;;;;;;5092223;28;20032;-74
2021/04/10 01:44:37;;;;;;;18.40;10.10;;;;;;;;;;5092219;28;20032;-73
2021/04/10 01:47:04;;;;;;;13.82;9.65;;;;;;;;;;5092759;28;20036;-73
2021/04/10 01:49:30;;;;;;;16.48;10.98;;;;;;;;;;5092334;28;20213;-73
2021/04/10 01:51:58;;;;;;;13.05;10.30;;;;;;;;;;5075394;28;20038;-73
2021/04/10 01:54:24;;;;;;;13.68;9.45;;;;;;;;;;5093243;28;20032;-73
2021/04/10 01:56:51;;;;;;;17.13;10.15;;;;;;;;;;5091613;28;20032;-73
2021/04/10 01:59:24;;;;;;;15.00;10.63;;;;;;;;;;5091820;28;20035;-74
2021/04/10 02:01:53;;;;;;;14.98;10.50;;;;;;;;;;5092344;28;20092;-75
2021/04/10 02:04:22;;;;;;;14.93;10.18;;;;;;;;;;5091785;28;20032;-75
2021/04/10 02:06:51;;;;;;;16.80;11.60;;;;;;;;;;5091029;28;20505;-75
2021/04/10 02:09:21;;;;;;;14.32;10.07;;;;;;;;;;5091357;28;20092;-76
2021/04/10 02:12:00;;;;;;;15.77;10.77;;;;;;;;;;5091822;28;20112;-74
2021/04/10 02:14:35;;;;;;;22.10;11.35;;;;;;;;;;5091991;28;20035;-74
2021/04/10 02:17:07;;;;;;;19.02;11.70;;;;;;;;;;5091791;28;20047;-74
2021/04/10 02:19:40;;;;;;;18.10;11.35;;;;;;;;;;5091816;28;20531;-75
2021/04/10 02:22:10;;;;;;;17.17;10.45;;;;;;;;;;5091877;28;20024;-75
2021/04/10 02:24:36;;;;;;;14.57;11.35;;;;;;;;;;5091627;28;20125;-74
2021/04/10 02:27:05;;;;;;;16.35;11.50;;;;;;;;;;5093177;28;20040;-75
2021/04/10 02:29:36;;;;;;;14.88;11.68;;;;;;;;;;5092450;28;20520;-75
2021/04/10 02:32:08;;;;;;;17.00;11.05;;;;;;;;;;5095723;28;20036;-75
2021/04/10 02:35:06;;;;;;;13.80;10.73;;;;;;;;;;5095778;28;20406;-74
2021/04/10 02:37:34;;;;;;;15.55;11.00;;;;;;;;;;5095205;28;20039;-74
2021/04/10 02:40:04;;;;;;;16.00;10.73;;;;;;;;;;5095163;28;20032;-75
2021/04/10 02:42:40;;;;;;;16.30;12.13;;;;;;;;;;5075363;28;20028;-76
2021/04/10 02:45:07;;;;;;;19.38;13.82;;;;;;;;;;5076487;28;20032;-75
2021/04/10 02:47:36;;;;;;;19.73;13.70;;;;;;;;;;5076665;28;20037;-75
2021/04/10 02:50:05;;;;;;;19.40;12.35;;;;;;;;;;5075579;28;20032;-75
2021/04/10 02:52:40;;;;;;;18.15;12.98;;;;;;;;;;5075145;28;20120;-75
2021/04/10 02:55:08;;;;;;;17.13;12.90;;;;;;;;;;5074440;28;20486;-76
2021/04/10 02:57:35;;;;;;;19.10;13.02;;;;;;;;;;5074783;28;20047;-76
2021/04/10 03:00:05;;;;;;;19.95;12.75;;;;;;;;;;5076587;28;20513;-75
2021/04/10 03:02:37;;;;;;;17.83;12.10;;;;;;;;;;5075550;28;20039;-76
2021/04/10 03:05:06;;;;;;;18.92;12.73;;;;;;;;;;5074626;28;20036;-76
2021/04/10 03:07:32;;;;;;;20.38;12.73;;;;;;;;;;5076213;28;20036;-76
2021/04/10 03:09:58;;;;;;;15.70;11.60;;;;;;;;;;5074597;28;20406;-76
2021/04/10 03:12:26;;;;;;;15.82;11.95;;;;;;;;;;5095882;28;20531;-76
2021/04/10 03:14:52;;;;;;;19.90;12.52;;;;;;;;;;5095147;28;20036;-75
2021/04/10 03:17:25;;;;;;;16.00;11.18;;;;;;;;;;5090843;28;20064;-76
2021/04/10 03:19:55;;;;;;;15.68;12.25;;;;;;;;;;5074839;28;20099;-75
2021/04/10 03:22:21;;;;;;;16.55;11.88;;;;;;;;;;5074947;28;20039;-76
2021/04/10 03:24:50;;;;;;;20.13;11.82;;;;;;;;;;5074626;28;20131;-76
2021/04/10 03:27:15;;;;;;;14.90;11.75;;;;;;;;;;5074563;28;20498;-76
2021/04/10 03:29:42;;;;;;;15.18;11.57;;;;;;;;;;5074312;28;20118;-75
2021/04/10 03:32:08;;;;;;;16.42;11.00;;;;;;;;;;5075788;28;20033;-76
2021/04/10 03:34:37;;;;;;;17.77;12.20;;;;;;;;;;5074266;28;20047;-76
2021/04/10 03:37:06;;;;;;;17.23;12.43;;;;;;;;;;5075845;28;20083;-76
2021/04/10 03:39:34;;;;;;;15.48;12.23;;;;;;;;;;5074358;28;20059;-76
2021/04/10 03:42:03;;;;;;;18.75;13.10;;;;;;;;;;5074404;28;20149;-76
2021/04/10 03:44:29;;;;;;;18.05;13.07;;;;;;;;;;5075706;28;20064;-76
2021/04/10 03:46:55;;;;;;;18.00;13.15;;;;;;;;;;5074329;28;20060;-76
2021/04/10 03:49:20;;;;;;;14.98;12.73;;;;;;;;;;5080444;28;20770;-76
2021/04/10 03:51:46;;;;;;;18.17;12.77;;;;;;;;;;5116279;28;20042;-76
2021/04/10 03:54:13;;;;;;;20.45;13.35;;;;;;;;;;5114723;28;20035;-76
2021/04/10 03:56:42;;;;;;;16.10;12.98;;;;;;;;;;5114839;28;20031;-76
2021/04/10 03:59:17;;;;;;;20.85;14.40;;;;;;;;;;5114423;28;20031;-77
2021/04/10 04:01:50;;;;;;;16.98;12.45;;;;;;;;;;5075290;28;20025;-76
2021/04/10 04:04:15;;;;;;;15.82;12.35;;;;;;;;;;5075197;28;20068;-76
2021/04/10 04:06:41;;;;;;;15.75;11.82;;;;;;;;;;5074104;28;20444;-76
2021/04/10 04:09:06;;;;;;;14.82;12.35;;;;;;;;;;5075266;28;20466;-76
2021/04/10 04:11:33;;;;;;;17.02;13.23;;;;;;;;;;5075448;28;20029;-76
2021/04/10 04:13:58;;;;;;;16.42;13.35;;;;;;;;;;5074165;28;20081;-76
2021/04/10 04:16:24;;;;;;;21.83;14.25;;;;;;;;;;5074860;28;20040;-78
2021/04/10 04:18:49;;;;;;;20.38;13.25;;;;;;;;;;5074885;28;20078;-76
2021/04/10 04:21:15;;;;;;;19.27;14.30;;;;;;;;;;5075287;28;20048;-76
2021/04/10 04:23:40;;;;;;;16.80;14.13;;;;;;;;;;5074590;28;20037;-76
2021/04/10 04:26:06;;;;;;;16.35;12.63;;;;;;;;;;5073479;28;20040;-76
2021/04/10 04:28:31;;;;;;;16.95;13.32;;;;;;;;;;5074901;28;20483;-76
2021/04/10 04:30:57;;;;;;;16.10;13.10;;;;;;;;;;5099704;28;20047;-76
2021/04/10 04:33:23;;;;;;;19.88;14.07;;;;;;;;;;5115269;27;20036;-77
2021/04/10 04:35:48;;;;;;;18.42;13.57;;;;;;;;;;5115378;28;20094;-76
2021/04/10 04:38:13;;;;;;;18.00;13.27;;;;;;;;;;5115257;28;20035;-76
2021/04/10 04:40:39;;;;;;;16.73;12.73;;;;;;;;;;5115317;28;20031;-76
2021/04/10 04:43:04;;;;;;;18.95;14.15;;;;;;;;;;5096457;28;20107;-76
2021/04/10 04:45:30;;;;;;;14.40;12.15;;;;;;;;;;5114516;28;20088;-77
2021/04/10 04:47:56;;;;;;;20.60;12.63;;;;;;;;;;5114162;27;20036;-76
2021/04/10 04:50:22;;;;;;;15.32;11.77;;;;;;;;;;5114840;28;20043;-77
2021/04/10 04:52:47;;;;;;;18.20;13.90;;;;;;;;;;5114280;27;20039;-77
2021/04/10 04:55:13;;;;;;;16.85;13.63;;;;;;;;;;5114670;28;20035;-77
2021/04/10 04:57:39;;;;;;;17.17;14.40;;;;;;;;;;5114666;28;20035;-76
2021/04/10 05:00:05;;;;;;;23.30;14.70;;;;;;;;;;5108916;28;20040;-76
2021/04/10 05:02:31;;;;;;;21.73;16.48;;;;;;;;;;5094980;28;20047;-76
2021/04/10 05:04:56;;;;;;;18.48;15.45;;;;;;;;;;5114159;28;20470;-76
2021/04/10 05:07:21;;;;;;;17.85;15.13;;;;;;;;;;5114455;28;20455;-77
2021/04/10 05:09:47;;;;;;;22.98;15.00;;;;;;;;;;5114505;28;20077;-76
2021/04/10 05:12:12;;;;;;;20.48;16.13;;;;;;;;;;5113188;28;20035;-76
2021/04/10 05:14:38;;;;;;;24.63;17.95;;;;;;;;;;5113476;28;20509;-76
2021/04/10 05:17:03;;;;;;;23.52;18.08;;;;;;;;;;5114383;28;20110;-76
2021/04/10 05:19:29;;;;;;;27.25;17.55;;;;;;;;;;5114075;28;20390;-76
2021/04/10 05:21:54;;;;;;;18.23;15.23;;;;;;;;;;5114370;28;20469;-76
2021/04/10 05:24:19;;;;;;;19.48;15.20;;;;;;;;;;5114482;28;20038;-76
2021/04/10 05:26:45;;;;;;;23.95;15.80;;;;;;;;;;5114366;28;20032;-76
2021/04/10 05:29:10;;;;;;;18.13;14.25;;;;;;;;;;5113995;28;20498;-76
2021/04/10 05:31:36;;;;;;;17.38;14.10;;;;;;;;;;5114164;28;20047;-76
2021/04/10 05:34:01;;;;;;;19.23;13.63;;;;;;;;;;5114348;28;20039;-76
2021/04/10 05:36:27;;;;;;;19.02;13.68;;;;;;;;;;5113810;28;20032;-75
2021/04/10 05:38:54;;;;;;;16.50;13.45;;;;;;;;;;5114102;28;20035;-76
2021/04/10 05:41:19;;;;;;;18.88;14.55;;;;;;;;;;5101015;28;20111;-75
2021/04/10 05:43:45;;;;;;;18.50;13.95;;;;;;;;;;5073483;28;20123;-76
2021/04/10 05:46:11;;;;;;;23.90;16.55;;;;;;;;;;5073548;28;20056;-74
2021/04/10 05:48:36;;;;;;;23.20;15.98;;;;;;;;;;5073173;28;20463;-74
2021/04/10 05:51:02;;;;;;;19.50;14.90;;;;;;;;;;5073214;28;20032;-74
2021/04/10 05:53:27;;;;;;;22.48;15.45;;;;;;;;;;5071732;28;20051;-74
2021/04/10 05:55:54;;;;;;;21.60;15.50;;;;;;;;;;5071155;28;20113;-75
2021/04/10 05:58:20;;;;;;;18.77;15.60;;;;;;;;;;5087072;28;20047;-74
2021/04/10 06:00:46;;;;;;;21.90;15.38;;;;;;;;;;5093277;28;20039;-74
2021/04/10 06:03:11;;;;;;;18.48;14.68;;;;;;;;;;5092194;28;20028;-75
2021/04/10 06:05:37;;;;;;;19.52;14.40;;;;;;;;;;5092852;28;20047;-75
2021/04/10 06:08:02;;;;;;;20.75;13.70;;;;;;;;;;5091890;28;20036;-78
2021/04/10 06:10:28;;;;;;;19.95;14.82;;;;;;;;;;5090990;28;20169;-76
2021/04/10 06:12:53;;;;;;;18.52;15.18;;;;;;;;;;5094025;28;20039;-77
2021/04/10 06:15:19;;;;;;;21.30;15.02;;;;;;;;;;5095823;28;20051;-78
2021/04/10 06:17:46;;;;;;;23.23;16.02;;;;;;;;;;5076246;28;20059;-78
2021/04/10 06:20:13;;;;;;;23.23;15.60;;;;;;;;;;5093309;28;20115;-79
2021/04/10 06:22:39;;;;;;;20.80;15.07;;;;;;;;;;5093687;28;20032;-78
2021/04/10 06:25:05;;;;;;;23.40;15.07;;;;;;;;;;5094018;28;20066;-77
2021/04/10 06:27:31;;;;;;;22.17;16.65;;;;;;;;;;5093214;28;20040;-77
2021/04/10 06:29:57;;;;;;;20.27;15.50;;;;;;;;;;5091998;28;20047;-76
2021/04/10 06:32:22;;;;;;;21.35;16.52;;;;;;;;;;5092988;28;20094;-76
2021/04/10 06:34:47;;;;;;;19.23;14.43;;;;;;;;;;5093139;28;20036;-77
2021/04/10 06:37:13;;;;;;;20.67;14.38;;;;;;;;;;5093289;28;20028;-78
2021/04/10 06:39:38;;;;;;;21.15;14.32;;;;;;;;;;5090635;28;20536;-77
2021/04/10 06:42:05;;;;;;;18.80;15.00;;;;;;;;;;5092667;28;20062;-77
2021/04/10 06:44:31;;;;;;;24.55;15.07;;;;;;;;;;5093550;28;20501;-77
2021/04/10 06:47:00;;;;;;;19.58;13.88;;;;;;;;;;5091701;28;20032;-77
2021/04/10 06:49:26;;;;;;;17.67;13.57;;;;;;;;;;5093111;28;20048;-76
2021/04/10 06:51:52;;;;;;;17.27;12.63;;;;;;;;;;5092953;28;20036;-77
2021/04/10 06:54:20;;;;;;;21.52;14.18;;;;;;;;;;5092971;28;20032;-75
2021/04/10 06:57:01;;;;;;;17.90;13.75;;;;;;;;;;5092167;28;20039;-76
2021/04/10 06:59:55;;;;;;;16.73;14.15;;;;;;;;;;5092838;28;20032;-76
2021/04/10 07:02:22;;;;;;;17.60;13.77;;;;;;;;;;5092902;28;20378;-75
2021/04/10 07:04:47;;;;;;;21.67;14.90;;;;;;;;;;5092567;28;20120;-75
2021/04/10 07:07:13;;;;;;;22.08;15.82;;;;;;;;;;5090592;28;20066;-76
2021/04/10 07:09:39;;;;;;;19.45;15.05;;;;;;;;;;5092537;28;20063;-75
2021/04/10 07:12:06;;;;;;;18.23;14.10;;;;;;;;;;5091401;28;20058;-75
2021/04/10 07:14:32;;;;;;;20.45;14.68;;;;;;;;;;5092535;28;20032;-75
2021/04/10 07:16:57;;;;;;;19.45;14.52;;;;;;;;;;5095421;28;20377;-75
2021/04/10 07:19:27;;;;;;;19.85;14.40;;;;;;;;;;5095226;28;20032;-75
2021/04/10 07:22:08;;;;;;;19.88;14.38;;;;;;;;;;5096431;28;20071;-75
2021/04/10 07:24:39;;;;;;;19.60;14.88;;;;;;;;;;5095956;28;20058;-75
2021/04/10 07:27:05;;;;;;;17.67;13.98;;;;;;;;;;5096262;28;20093;-75
2021/04/10 07:29:33;;;;;;;20.40;15.13;;;;;;;;;;5096178;28;20040;-76
2021/04/10 07:32:00;;;;;;;21.17;16.35;;;;;;;;;;5096186;28;20040;-76
2021/04/10 07:34:26;;;;;;;22.00;16.98;;;;;;;;;;5096230;28;20093;-75
2021/04/10 07:36:59;;;;;;;20.15;16.95;;;;;;;;;;5096065;28;20024;-75
2021/04/10 07:39:26;;;;;;;22.05;16.80;;;;;;;;;;5094577;28;20044;-75
2021/04/10 07:42:00;;;;;;;20.27;15.73;;;;;;;;;;5095990;28;20102;-75
2021/04/10 07:44:37;;;;;;;19.10;14.85;;;;;;;;;;5095993;28;20032;-75
2021/04/10 07:47:04;;;;;;;20.63;14.80;;;;;;;;;;5095738;28;20028;-75
2021/04/10 07:49:30;;;;;;;18.77;15.05;;;;;;;;;;5094973;28;20096;-75
2021/04/10 07:51:59;;;;;;;21.17;15.38;;;;;;;;;;5095716;28;20123;-75
2021/04/10 07:54:25;;;;;;;17.27;13.93;;;;;;;;;;5095530;28;20044;-74
2021/04/10 07:57:04;;;;;;;19.02;14.10;;;;;;;;;;5095823;28;20171;-75
2021/04/10 07:59:46;;;;;;;16.85;13.63;;;;;;;;;;5095389;28;20035;-75
2021/04/10 08:02:14;;;;;;;16.23;13.55;;;;;;;;;;5095359;28;20040;-75
2021/04/10 08:04:41;;;;;;;21.98;15.02;;;;;;;;;;5095494;28;20115;-75
2021/04/10 08:07:07;;;;;;;20.13;15.82;;;;;;;;;;5095539;28;20036;-75
2021/04/10 08:09:39;;;;;;;21.38;14.95;;;;;;;;;;5095193;28;20031;-75
2021/04/10 08:12:12;;;;;;;20.33;16.20;;;;;;;;;;5094160;28;20039;-75
2021/04/10 08:14:45;;;;;;;20.20;15.75;;;;;;;;;;5095165;28;20405;-75
2021/04/10 08:17:34;;;;;;;25.13;16.05;;;;;;;;;;5095252;28;20036;-75
2021/04/10 08:20:21;;;;;;;25.45;16.77;;;;;;;;;;5095248;28;20077;-75
2021/04/10 08:22:46;;;;;;;20.85;15.85;;;;;;;;;;5093794;28;20031;-75
2021/04/10 08:25:12;;;;;;;20.48;16.13;;;;;;;;;;5094902;28;20103;-75
2021/04/10 08:27:39;;;;;;;24.20;16.33;;;;;;;;;;5093940;28;20036;-76
2021/04/10 08:30:07;;;;;;;18.83;15.77;;;;;;;;;;5093661;28;20386;-75
2021/04/10 08:32:32;;;;;;;26.30;18.73;;;;;;;;;;5093788;28;20406;-75
2021/04/10 08:34:58;;;;;;;29.08;20.60;;;;;;;;;;5094951;28;20064;-75
2021/04/10 08:37:26;;;;;;;25.85;20.52;;;;;;;;;;5094870;28;20489;-75
2021/04/10 08:39:54;;;;;;;35.13;26.08;;;;;;;;;;5094309;28;20040;-75
2021/04/10 08:42:21;;;;;;;33.47;24.10;;;;;;;;;;5094823;28;20028;-75
2021/04/10 08:44:47;;;;;;;23.88;18.45;;;;;;;;;;5094858;28;20100;-75
2021/04/10 08:47:14;;;;;;;20.92;16.92;;;;;;;;;;5094573;28;20045;-75
2021/04/10 08:49:43;;;;;;;22.23;17.52;;;;;;;;;;5093271;28;20035;-75
2021/04/10 08:52:13;;;;;;;25.23;18.50;;;;;;;;;;5094496;28;20036;-75
2021/04/10 08:54:41;;;;;;;20.42;16.70;;;;;;;;;;5094212;28;20067;-75
2021/04/10 08:57:09;;;;;;;19.92;16.75;;;;;;;;;;5093322;28;20036;-75
2021/04/10 08:59:46;;;;;;;21.67;16.65;;;;;;;;;;5094439;28;20086;-75
2021/04/10 09:02:13;;;;;;;26.17;17.88;;;;;;;;;;5094337;28;20482;-75
2021/04/10 09:04:58;;;;;;;20.23;17.27;;;;;;;;;;5093635;28;20039;-76
2021/04/10 09:07:48;;;;;;;25.60;19.92;;;;;;;;;;5094101;28;20375;-75
2021/04/10 09:10:28;;;;;;;22.85;17.58;;;;;;;;;;5094085;28;20024;-75
2021/04/10 09:13:06;;;;;;;30.63;21.67;;;;;;;;;;5092399;28;20036;-75
2021/04/10 09:15:34;;;;;;;24.00;18.08;;;;;;;;;;5094261;28;20043;-75
2021/04/10 09:18:01;;;;;;;25.67;19.42;;;;;;;;;;5092613;28;20032;-75
2021/04/10 09:20:45;;;;;;;21.67;18.05;;;;;;;;;;5093907;28;20118;-75
2021/04/10 09:23:31;;;;;;;23.45;16.48;;;;;;;;;;5093845;28;20556;-75
2021/04/10 09:26:08;;;;;;;20.67;17.20;;;;;;;;;;5092653;28;20047;-74
2021/04/10 09:28:35;;;;;;;22.73;17.65;;;;;;;;;;5093830;28;20043;-76
2021/04/10 09:31:02;;;;;;;25.85;19.05;;;;;;;;;;5093777;28;20056;-77
2021/04/10 09:33:30;;;;;;;24.70;19.63;;;;;;;;;;5093857;28;20035;-76
2021/04/10 09:36:00;;;;;;;35.17;18.95;;;;;;;;;;5093893;28;20035;-76
2021/04/10 09:38:42;;;;;;;23.40;17.35;;;;;;;;;;5093805;28;20036;-76
2021/04/10 09:41:09;;;;;;;24.40;20.45;;;;;;;;;;5091935;28;20075;-77
2021/04/10 09:43:35;;;;;;;24.48;19.55;;;;;;;;;;5093133;28;20158;-76
2021/04/10 09:46:00;;;;;;;22.13;18.33;;;;;;;;;;5093658;28;20489;-76
2021/04/10 09:48:31;;;;;;;21.05;17.77;;;;;;;;;;5093154;28;20028;-77
2021/04/10 09:50:56;;;;;;;24.55;20.30;;;;;;;;;;5092620;28;20046;-76
2021/04/10 09:53:23;;;;;;;24.05;19.27;;;;;;;;;;5093834;28;20028;-75
2021/04/10 09:55:57;;;;;;;27.13;21.58;;;;;;;;;;5093397;28;20036;-76
2021/04/10 09:58:23;;;;;;;27.42;21.10;;;;;;;;;;5093363;28;20043;-76
2021/04/10 10:00:53;;;;;;;27.75;21.90;;;;;;;;;;5093541;28;20357;-77
2021/04/10 10:03:23;;;;;;;52.70;35.78;;;;;;;;;;5093525;28;20361;-76
2021/04/10 10:05:51;;;;;;;42.20;26.88;;;;;;;;;;5093446;28;20032;-77
2021/04/10 10:08:19;;;;;;;37.25;27.35;;;;;;;;;;5074858;28;20051;-77
2021/04/10 10:10:55;;;;;;;38.38;27.88;;;;;;;;;;5092603;28;20040;-76
2021/04/10 10:13:21;;;;;;;;;;;;;;;;;;5073396;28;20032;-76
2021/04/10 10:15:49;;;;;;;28.85;21.85;;;;;;;;;;5073131;28;19916;-77
2021/04/10 10:18:31;;;;;;;31.45;20.63;;;;;;;;;;5072964;28;20059;-76
2021/04/10 10:21:03;;;;;;;25.02;19.95;;;;;;;;;;5071809;28;20036;-76
2021/04/10 10:23:34;;;;;;;29.55;20.95;;;;;;;;;;5073130;28;20094;-76
2021/04/10 10:26:11;;;;;;;27.65;21.95;;;;;;;;;;5072889;28;20111;-76
2021/04/10 10:28:39;;;;;;;25.85;21.33;;;;;;;;;;5072660;28;20035;-76
2021/04/10 10:31:10;;;;;;;25.45;20.20;;;;;;;;;;5072851;28;20045;-75
2021/04/10 10:33:36;;;;;;;28.67;21.30;;;;;;;;;;5072880;28;20079;-75
2021/04/10 10:36:02;;;;;;;28.48;22.35;;;;;;;;;;5088733;28;20028;-76
2021/04/10 10:38:36;;;;;;;32.83;23.17;;;;;;;;;;5074566;28;20032;-75
2021/04/10 10:41:03;;;;;;;26.80;20.95;;;;;;;;;;5088768;28;20085;-77
2021/04/10 10:43:30;;;;;;;29.92;21.25;;;;;;;;;;5101148;28;20050;-79
2021/04/10 10:46:02;;;;;;;26.25;21.42;;;;;;;;;;5098477;28;20036;-75
2021/04/10 10:48:38;;;;;;;29.98;20.92;;;;;;;;;;5096863;28;20039;-75
2021/04/10 10:51:16;;;;;;;26.27;19.75;;;;;;;;;;5094712;28;20089;-74
2021/04/10 10:53:47;;;;;;;24.33;18.80;;;;;;;;;;5098582;28;20038;-74
2021/04/10 10:56:13;;;;;;;29.33;18.27;;;;;;;;;;5097025;28;20047;-74
2021/04/10 10:58:45;;;;;;;40.53;25.05;;;;;;;;;;5098301;28;20028;-74
2021/04/10 11:01:24;;;;;;;26.38;20.85;;;;;;;;;;5096124;28;20131;-73
2021/04/10 11:04:02;;;;;;;27.60;19.70;;;;;;;;;;5096998;28;20064;-74
2021/04/10 11:06:30;;;;;;;24.95;19.83;;;;;;;;;;5097028;28;20455;-73
2021/04/10 11:08:56;;;;;;;27.38;19.23;;;;;;;;;;5096519;28;20382;-73
2021/04/10 11:11:27;;;;;;;27.23;20.75;;;;;;;;;;5096582;28;20047;-73
2021/04/10 11:13:53;;;;;;;25.25;17.83;;;;;;;;;;5095570;28;20445;-72
2021/04/10 11:16:19;;;;;;;23.23;18.45;;;;;;;;;;5095409;28;20388;-72
2021/04/10 11:18:45;;;;;;;23.30;18.25;;;;;;;;;;5095339;28;20425;-72
2021/04/10 11:21:28;;;;;;;27.50;18.38;;;;;;;;;;5096574;28;20035;-72
2021/04/10 11:23:57;;;;;;;19.05;15.82;;;;;;;;;;5096401;28;20024;-72
2021/04/10 11:26:39;;;;;;;17.38;13.98;;;;;;;;;;5095280;28;20084;-72
2021/04/10 11:29:14;;;;;;;17.42;13.63;;;;;;;;;;5095560;28;20071;-72
2021/04/10 11:31:40;;;;;;;17.77;14.60;;;;;;;;;;5095992;28;20066;-72
2021/04/10 11:34:31;;;;;;;16.48;13.27;;;;;;;;;;5096256;28;20090;-72
2021/04/10 11:36:57;;;;;;;19.50;13.18;;;;;;;;;;5095842;28;20039;-72
2021/04/10 11:39:23;;;;;;;12.38;10.77;;;;;;;;;;5093795;28;20497;-72
2021/04/10 11:41:49;;;;;;;16.42;12.07;;;;;;;;;;5096245;28;20070;-72
2021/04/10 11:44:19;;;;;;;14.57;11.35;;;;;;;;;;5096041;28;20031;-71
2021/04/10 11:46:45;;;;;;;15.65;10.88;;;;;;;;;;5094424;28;20044;-72
2021/04/10 11:49:23;;;;;;;16.52;11.95;;;;;;;;;;5095876;28;20039;-72
2021/04/10 11:51:49;;;;;;;14.98;12.90;;;;;;;;;;5096021;28;20032;-72
2021/04/10 11:54:31;;;;;;;16.77;12.52;;;;;;;;;;5095600;28;20394;-72
2021/04/10 11:56:56;;;;;;;16.33;12.82;;;;;;;;;;5095335;28;20118;-72
2021/04/10 11:59:31;;;;;;;16.83;12.70;;;;;;;;;;5095613;28;20068;-72
2021/04/10 12:02:01;;;;;;;17.92;14.25;;;;;;;;;;5093794;28;20090;-71
2021/04/10 12:04:28;;;;;;;17.25;13.60;;;;;;;;;;5095595;28;20048;-72
2021/04/10 12:07:08;;;;;;;18.05;12.70;;;;;;;;;;5095645;28;20040;-72
2021/04/10 12:09:37;;;;;;;19.27;13.73;;;;;;;;;;5094354;28;20040;-72
2021/04/10 12:12:04;;;;;;;18.33;13.73;;;;;;;;;;5094872;28;20040;-72
2021/04/10 12:14:30;;;;;;;17.58;14.05;;;;;;;;;;5094453;28;20042;-72
2021/04/10 12:16:55;;;;;;;16.02;13.60;;;;;;;;;;5095499;28;20040;-72
2021/04/10 12:19:22;;;;;;;19.13;13.55;;;;;;;;;;5094540;28;20031;-72
2021/04/10 12:21:48;;;;;;;19.83;13.82;;;;;;;;;;5094545;28;20490;-72
2021/04/10 12:24:14;;;;;;;19.02;14.38;;;;;;;;;;5095605;28;20058;-72
2021/04/10 12:26:39;;;;;;;21.65;15.35;;;;;;;;;;5095451;28;20032;-72
2021/04/10 12:29:05;;;;;;;22.48;15.40;;;;;;;;;;5095184;28;20402;-72
2021/04/10 12:31:31;;;;;;;20.98;15.93;;;;;;;;;;5094924;28;20063;-72
2021/04/10 12:33:56;;;;;;;25.02;15.75;;;;;;;;;;5094264;28;20040;-72
2021/04/10 12:36:22;;;;;;;19.77;15.82;;;;;;;;;;5095324;28;20036;-72
2021/04/10 12:38:47;;;;;;;19.48;15.73;;;;;;;;;;5095089;28;20042;-72
2021/04/10 12:41:12;;;;;;;24.77;16.63;;;;;;;;;;5094043;28;20067;-72
2021/04/10 12:43:38;;;;;;;22.00;16.25;;;;;;;;;;5093917;28;20085;-72
2021/04/10 12:46:04;;;;;;;21.58;16.83;;;;;;;;;;5094798;28;20036;-71
2021/04/10 12:48:30;;;;;;;21.70;16.08;;;;;;;;;;5093789;28;20020;-72
2021/04/10 12:50:55;;;;;;;19.33;14.85;;;;;;;;;;5095302;28;20040;-71
2021/04/10 12:53:20;;;;;;;20.65;16.35;;;;;;;;;;5095033;28;20042;-72
2021/04/10 12:55:46;;;;;;;19.77;16.13;;;;;;;;;;5093723;28;20034;-72
2021/04/10 12:58:12;;;;;;;21.30;16.45;;;;;;;;;;5094964;28;20106;-72
2021/04/10 13:00:37;;;;;;;24.70;15.57;;;;;;;;;;5095151;28;20036;-72
2021/04/10 13:03:03;;;;;;;18.00;15.43;;;;;;;;;;5093985;28;20066;-72
2021/04/10 13:05:28;;;;;;;20.42;15.35;;;;;;;;;;5093476;28;20071;-72
2021/04/10 13:07:54;;;;;;;26.55;16.52;;;;;;;;;;5094280;28;20032;-72
2021/04/10 13:10:21;;;;;;;22.90;15.90;;;;;;;;;;5093557;28;20117;-72
2021/04/10 13:12:47;;;;;;;16.50;13.45;;;;;;;;;;5092965;28;20133;-72
2021/04/10 13:15:14;;;;;;;17.95;12.82;;;;;;;;;;5093886;28;20489;-72
2021/04/10 13:17:40;;;;;;;18.08;13.32;;;;;;;;;;5094108;28;20115;-72
2021/04/10 13:20:09;;;;;;;17.33;13.50;;;;;;;;;;5093983;28;20374;-72
2021/04/10 13:22:34;;;;;;;18.27;14.05;;;;;;;;;;5076027;28;20028;-72
2021/04/10 13:25:00;;;;;;;19.45;14.05;;;;;;;;;;5093837;28;20096;-72
2021/04/10 13:27:26;;;;;;;17.60;13.63;;;;;;;;;;5093908;28;20040;-72
2021/04/10 13:29:51;;;;;;;18.52;13.68;;;;;;;;;;5093838;28;20040;-72
2021/04/10 13:32:16;;;;;;;17.15;13.45;;;;;;;;;;5092644;28;20043;-72
2021/04/10 13:34:42;;;;;;;18.02;14.55;;;;;;;;;;5093852;28;20028;-72
2021/04/10 13:37:07;;;;;;;18.45;13.63;;;;;;;;;;5094094;28;20031;-72
2021/04/10 13:39:33;;;;;;;17.13;12.52;;;;;;;;;;5092788;28;20389;-71
2021/04/10 13:41:58;;;;;;;18.17;13.27;;;;;;;;;;5092632;28;20371;-72
2021/04/10 13:44:23;;;;;;;19.33;13.57;;;;;;;;;;5093869;28;20089;-72
2021/04/10 13:46:49;;;;;;;18.90;12.07;;;;;;;;;;5092632;28;20032;-72
2021/04/10 13:49:14;;;;;;;14.45;12.35;;;;;;;;;;5093750;28;20510;-72
2021/04/10 13:51:40;;;;;;;19.95;12.90;;;;;;;;;;5093024;28;20040;-72
2021/04/10 13:54:06;;;;;;;18.55;13.82;;;;;;;;;;5093691;28;20055;-72
2021/04/10 13:56:32;;;;;;;19.95;13.60;;;;;;;;;;5092027;28;20118;-72
2021/04/10 13:58:59;;;;;;;19.17;15.10;;;;;;;;;;5092347;28;20137;-72
2021/04/10 14:01:27;;;;;;;20.27;15.90;;;;;;;;;;5094100;28;20115;-72
2021/04/10 14:03:53;;;;;;;17.73;13.82;;;;;;;;;;5093861;28;20040;-72
2021/04/10 14:06:19;;;;;;;18.08;14.32;;;;;;;;;;5089480;28;20032;-72
2021/04/10 14:08:44;;;;;;;20.15;14.55;;;;;;;;;;5082676;28;20566;-72
2021/04/10 14:11:11;;;;;;;18.25;14.90;;;;;;;;;;5082110;28;20031;-72
2021/04/10 14:13:38;;;;;;;21.08;14.82;;;;;;;;;;5084082;28;20043;-72
2021/04/10 14:16:05;;;;;;;21.27;14.25;;;;;;;;;;5082346;28;20036;-72
2021/04/10 14:18:30;;;;;;;20.83;15.60;;;;;;;;;;5083801;28;20158;-72
2021/04/10 14:20:58;;;;;;;20.63;15.65;;;;;;;;;;5082282;28;20064;-72
2021/04/10 14:23:26;;;;;;;20.10;13.98;;;;;;;;;;5083641;28;20036;-72
2021/04/10 14:25:52;;;;;;;18.08;14.70;;;;;;;;;;5085610;28;20039;-72